Time;durP1;ratioP1;P1;durP2;ratioP2;P2;SDS_P1;SDS_P2;PMS_P1;PMS_P2;Temp;Humidity;BMP_temperature;BMP_pressure;BME280_temperature;BME280_humidity;BME280_pressure;Samples;Min_cycle;Max_cycle;Signal;HPM_P1;HPM_P2
2023/01/12 00:00:38;;;;;;;0.30;0.30;;;;;;;8.33;80.69;100622.03;5153576;28;20047;-84
2023/01/12 00:03:08;;;;;;;1.42;1.33;;;;;;;8.33;80.99;100624.66;5140911;28;20039;-82
2023/01/12 00:05:39;;;;;;;0.30;0.30;;;;;;;8.31;81.57;100643.00;5121636;28;20043;-84
2023/01/12 00:08:09;;;;;;;0.30;0.30;;;;;;;8.35;81.55;100643.78;5136228;28;20110;-83
2023/01/12 00:10:40;;;;;;;0.60;0.60;;;;;;;8.31;81.62;100642.09;5137874;28;20046;-81
2023/01/12 00:13:10;;;;;;;0.30;0.30;;;;;;;8.28;81.90;100642.19;5136475;28;20039;-82
2023/01/12 00:18:31;;;;;;;2.00;1.38;;;;;;;8.25;82.85;100624.81;5152796;28;20122;-83
2023/01/12 00:21:01;;;;;;;0.98;0.82;;;;;;;8.22;82.92;100627.47;5132741;28;20036;-83
2023/01/12 00:23:32;;;;;;;0.32;0.32;;;;;;;8.17;82.89;100638.00;5138092;28;20102;-83
2023/01/12 00:26:02;;;;;;;0.70;0.70;;;;;;;8.24;83.09;100628.31;5144367;28;20049;-81
2023/01/12 00:28:40;;;;;;;0.52;0.52;;;;;;;8.27;83.23;100627.38;5155499;28;20035;-81
2023/01/12 00:31:10;;;;;;;0.30;0.30;;;;;;;8.23;83.74;100616.13;5154973;28;20421;-82
2023/01/12 00:33:41;;;;;;;0.73;0.60;;;;;;;8.23;83.88;100615.25;5140058;28;20023;-83
2023/01/12 00:36:14;;;;;;;0.98;0.98;;;;;;;8.26;83.01;100631.78;5150717;28;20051;-82
2023/01/12 00:38:45;;;;;;;1.25;1.15;;;;;;;8.26;82.84;100615.19;5155444;28;20042;-83
2023/01/12 00:45:20;;;;;;;0.40;0.40;;;;;;;8.26;82.91;100608.25;5120139;28;20035;-82
2023/01/12 00:46:55;;;;;;;0.43;0.43;;;;;;;8.19;83.45;100604.88;5142033;28;20748;-83
2023/01/12 00:49:26;;;;;;;0.35;0.35;;;;;;;8.23;83.79;100604.78;5135077;28;20106;-82
2023/01/12 00:51:56;;;;;;;0.30;0.30;;;;;;;8.25;83.59;100592.56;5140529;28;20034;-81
2023/01/12 00:54:27;;;;;;;9.15;0.93;;;;;;;8.25;84.00;100605.63;5155241;28;20382;-83
2023/01/12 00:56:57;;;;;;;0.30;0.30;;;;;;;8.26;83.95;100594.28;5140407;28;20128;-81
2023/01/12 00:59:28;;;;;;;0.65;0.65;;;;;;;8.22;83.68;100595.25;5136345;28;20031;-81
2023/01/12 01:01:59;;;;;;;0.30;0.30;;;;;;;8.22;83.96;100590.03;5155875;28;20035;-82
2023/01/12 01:04:30;;;;;;;0.65;0.65;;;;;;;8.27;83.76;100586.41;5140354;28;20030;-82
2023/01/12 01:07:01;;;;;;;5.25;1.33;;;;;;;8.30;83.26;100585.50;5155125;28;20129;-81
2023/01/12 01:09:32;;;;;;;1.38;0.73;;;;;;;8.29;83.35;100592.47;5154797;28;20023;-82
2023/01/12 01:12:02;;;;;;;0.63;0.63;;;;;;;8.27;83.96;100581.19;5134173;28;20038;-82
2023/01/12 01:14:33;;;;;;;0.55;0.55;;;;;;;8.31;83.06;100589.81;5134091;28;20040;-82
2023/01/12 01:17:04;;;;;;;0.40;0.40;;;;;;;8.26;83.02;100594.28;5128698;28;20466;-81
2023/01/12 01:19:35;;;;;;;0.30;0.30;;;;;;;8.26;83.48;100594.28;5143028;28;20065;-82
2023/01/12 01:22:06;;;;;;;0.40;0.40;;;;;;;8.26;83.49;100583.84;5140561;28;20051;-82
2023/01/12 01:24:36;;;;;;;0.70;0.70;;;;;;;8.27;83.18;100581.19;5138074;28;20066;-83
2023/01/12 01:27:07;;;;;;;2.05;1.08;;;;;;;8.35;82.79;100588.88;5140713;28;20058;-81
2023/01/12 01:29:37;;;;;;;0.73;0.73;;;;;;;8.30;82.71;100585.50;5132147;28;20031;-83
2023/01/12 01:32:08;;;;;;;0.20;0.20;;;;;;;8.29;82.90;100586.41;5137749;28;20049;-82
2023/01/12 01:34:39;;;;;;;1.25;1.10;;;;;;;8.35;82.54;100578.44;5132010;28;20055;-82
2023/01/12 01:37:10;;;;;;;0.50;0.50;;;;;;;8.35;82.46;100578.44;5135407;28;20046;-82
2023/01/12 01:39:41;;;;;;;0.65;0.52;;;;;;;8.33;82.61;100580.22;5122153;28;20119;-83
2023/01/12 01:42:48;;;;;;;0.43;0.43;;;;;;;8.29;82.97;100568.94;5154167;28;20107;-82
2023/01/12 01:45:12;;;;;;;0.73;0.73;;;;;;;8.29;82.78;100573.34;5134224;28;20045;-81
2023/01/12 01:47:51;;;;;;;1.55;1.48;;;;;;;8.30;83.26;100569.84;5132563;28;20169;-82
2023/01/12 01:50:25;;;;;;;1.00;1.00;;;;;;;8.30;82.97;100567.22;5136242;28;20023;-81
2023/01/12 01:53:02;;;;;;;0.30;0.30;;;;;;;8.34;82.36;100561.03;5152515;28;20089;-82
2023/01/12 01:55:37;;;;;;;0.95;0.85;;;;;;;8.34;82.75;100553.19;5151078;28;20039;-82
2023/01/12 01:58:33;;;;;;;0.45;0.45;;;;;;;8.35;82.32;100562.75;5150117;28;20038;-82
2023/01/12 02:01:05;;;;;;;0.30;0.30;;;;;;;8.33;82.34;100559.28;5113696;28;20557;-82
2023/01/12 02:03:37;;;;;;;0.30;0.30;;;;;;;8.37;82.21;100560.97;5139135;28;20030;-82
2023/01/12 02:06:08;;;;;;;0.77;0.77;;;;;;;8.42;81.86;100543.41;5136121;28;20050;-82
2023/01/12 02:08:47;;;;;;;1.23;1.08;;;;;;;8.42;81.84;100543.41;5150623;28;20124;-82
2023/01/12 02:16:57;;;;;;;0.52;0.52;;;;;;;8.45;81.57;100538.13;5151112;28;20062;-83
2023/01/12 02:19:36;;;;;;;0.60;0.60;;;;;;;8.42;81.55;100535.56;5129352;28;20062;-83
2023/01/12 02:22:44;;;;;;;5.07;1.65;;;;;;;8.43;81.30;100524.22;5117925;28;20035;-82
2023/01/12 02:25:49;;;;;;;0.80;0.80;;;;;;;8.42;80.99;100532.97;5137279;28;20030;-82
2023/01/12 02:28:48;;;;;;;0.63;0.63;;;;;;;8.49;80.42;100531.13;5155193;28;20026;-82
2023/01/12 02:31:43;;;;;;;0.55;0.55;;;;;;;8.48;80.46;100527.63;5155276;28;20105;-82
2023/01/12 02:34:43;;;;;;;0.45;0.45;;;;;;;8.49;80.16;100526.75;5138814;28;20311;-82
2023/01/12 02:37:24;;;;;;;0.77;0.77;;;;;;;8.47;80.70;100518.06;5138445;28;20039;-82
2023/01/12 02:40:13;;;;;;;0.38;0.38;;;;;;;8.48;81.00;100505.88;5120842;28;20035;-82
2023/01/12 02:43:27;;;;;;;0.47;0.47;;;;;;;8.47;80.96;100510.22;5132242;28;20066;-82
2023/01/12 02:46:22;;;;;;;0.32;0.32;;;;;;;8.48;81.04;100504.09;5109717;28;20179;-82
2023/01/12 02:49:03;;;;;;;0.30;0.30;;;;;;;8.46;81.82;100505.88;5123901;28;20039;-82
2023/01/12 02:52:11;;;;;;;0.30;0.30;;;;;;;8.46;82.50;100503.25;5118178;28;20118;-82
2023/01/12 02:54:46;;;;;;;0.30;0.30;;;;;;;8.47;83.21;100498.91;5114653;28;20052;-82
2023/01/12 02:57:21;;;;;;;0.75;0.75;;;;;;;8.47;83.27;100501.53;5120622;28;20138;-83
2023/01/12 02:59:54;;;;;;;0.30;0.30;;;;;;;8.42;84.02;100491.13;5134674;28;20037;-81
2023/01/12 03:02:26;;;;;;;1.92;1.63;;;;;;;8.41;84.36;100485.94;5139086;28;20043;-82
2023/01/12 03:04:57;;;;;;;1.13;1.02;;;;;;;8.34;84.46;100477.38;5131860;28;20039;-83
2023/01/12 03:07:38;;;;;;;0.40;0.40;;;;;;;8.35;84.67;100469.47;5137849;28;20691;-83
2023/01/12 03:10:32;;;;;;;0.93;0.93;;;;;;;8.38;85.01;100473.81;5151167;28;20073;-82
2023/01/12 03:13:07;;;;;;;0.32;0.32;;;;;;;8.39;84.93;100475.50;5139100;28;20038;-83
2023/01/12 03:15:43;;;;;;;0.77;0.77;;;;;;;8.45;84.73;100459.69;5138768;28;20117;-82
2023/01/12 03:18:41;;;;;;;0.50;0.50;;;;;;;8.40;84.92;100456.31;5137828;28;20034;-82
2023/01/12 03:21:19;;;;;;;0.30;0.30;;;;;;;8.43;84.94;100450.19;5127291;28;20350;-82
2023/01/12 03:24:07;;;;;;;0.30;0.30;;;;;;;8.35;85.48;100458.19;5154043;28;20062;-81
2023/01/12 03:26:42;;;;;;;1.80;1.05;;;;;;;8.45;84.50;100449.25;5149621;28;20403;-82
2023/01/12 03:29:41;;;;;;;0.28;0.28;;;;;;;8.46;85.08;100447.47;5115752;28;21021;-81
2023/01/12 03:32:11;;;;;;;0.75;0.75;;;;;;;8.33;85.23;100441.66;5130204;28;20039;-82
2023/01/12 03:34:42;;;;;;;0.80;0.80;;;;;;;8.36;84.96;100446.81;5149588;28;20105;-82
2023/01/12 03:37:26;;;;;;;0.30;0.30;;;;;;;8.35;85.01;100442.50;5133531;28;20050;-81
2023/01/12 03:40:01;;;;;;;0.80;0.60;;;;;;;8.30;85.19;100447.81;5151181;28;20058;-82
2023/01/12 03:42:37;;;;;;;1.38;1.27;;;;;;;8.32;85.52;100426.88;5133940;28;20031;-82
2023/01/12 03:45:51;;;;;;;0.47;0.47;;;;;;;8.34;85.29;100438.16;5151341;28;20117;-82
2023/01/12 03:48:29;;;;;;;0.52;0.52;;;;;;;8.33;84.87;100432.06;5090784;29;20047;-82
2023/01/12 03:51:12;;;;;;;2.53;1.08;;;;;;;8.34;84.28;100431.19;5095044;29;20461;-82
2023/01/12 03:53:48;;;;;;;0.30;0.30;;;;;;;8.33;84.84;100418.13;5113856;28;20046;-82
2023/01/12 03:56:20;;;;;;;1.17;0.93;;;;;;;8.37;84.29;100417.19;5150188;28;20058;-81
2023/01/12 03:58:52;;;;;;;0.50;0.50;;;;;;;8.35;84.11;100405.88;5120752;28;20034;-80
2023/01/12 04:01:22;;;;;;;0.70;0.70;;;;;;;8.44;83.87;100412.66;5141105;28;20038;-82
2023/01/12 04:03:53;;;;;;;8.95;0.93;;;;;;;8.48;83.48;100406.50;5121563;28;20058;-80
2023/01/12 04:06:23;;;;;;;1.98;1.60;;;;;;;8.40;84.00;100403.19;5130708;28;20513;-81
2023/01/12 04:08:54;;;;;;;0.50;0.50;;;;;;;8.38;84.88;100394.50;5140884;28;20027;-80
2023/01/12 04:14:13;;;;;;;0.30;0.30;;;;;;;8.39;84.94;100384.00;5170914;28;20284;-81
2023/01/12 04:16:45;;;;;;;3.17;1.38;;;;;;;8.39;84.68;100391.84;5153395;28;20043;-81
2023/01/12 04:19:16;;;;;;;0.35;0.35;;;;;;;8.46;84.70;100395.19;5150178;28;20047;-82
2023/01/12 04:24:35;;;;;;;0.50;0.50;;;;;;;8.39;85.49;100391.00;5157960;28;20094;-80
2023/01/12 04:27:06;;;;;;;0.93;0.93;;;;;;;8.44;84.61;100384.75;5165133;28;20027;-79
2023/01/12 04:29:37;;;;;;;0.30;0.30;;;;;;;8.44;85.10;100374.31;5151067;28;20039;-82
2023/01/12 04:32:07;;;;;;;0.50;0.50;;;;;;;8.43;85.43;100369.97;5137243;28;20050;-82
2023/01/12 04:34:38;;;;;;;0.20;0.20;;;;;;;8.41;85.70;100357.84;5133878;28;20066;-82
2023/01/12 04:37:09;;;;;;;0.30;0.30;;;;;;;8.34;86.39;100346.66;5132874;28;20034;-82
2023/01/12 04:39:39;;;;;;;0.50;0.50;;;;;;;8.35;86.79;100349.22;5146499;28;20114;-81
2023/01/12 04:42:59;;;;;;;0.43;0.43;;;;;;;8.35;86.77;100348.38;5155355;28;20081;-81
2023/01/12 04:45:00;;;;;;;0.30;0.30;;;;;;;8.37;86.97;100348.34;5157195;28;20099;-82
2023/01/12 04:47:32;;;;;;;2.63;1.38;;;;;;;8.37;86.98;100328.28;5160649;28;20027;-81
2023/01/12 04:50:03;;;;;;;0.30;0.30;;;;;;;8.38;86.91;100332.63;5159335;28;20038;-82
2023/01/12 04:52:34;;;;;;;0.30;0.30;;;;;;;8.38;87.29;100321.28;5156797;28;20027;-81
2023/01/12 04:55:05;;;;;;;1.75;1.25;;;;;;;8.46;86.78;100317.63;5167813;28;20631;-81
2023/01/12 04:57:36;;;;;;;0.30;0.30;;;;;;;8.38;87.46;100319.56;5173276;28;20031;-81
2023/01/12 05:00:08;;;;;;;0.47;0.47;;;;;;;8.39;87.35;100308.19;5153898;28;20023;-82
2023/01/12 05:02:39;;;;;;;1.00;1.00;;;;;;;8.39;87.87;100299.50;5140597;28;20110;-82
2023/01/12 05:05:09;;;;;;;0.68;0.68;;;;;;;8.41;87.72;100305.56;5136576;28;20126;-83
2023/01/12 05:10:21;;;;;;;0.30;0.30;;;;;;;8.40;87.31;100306.44;5128247;28;20062;-81
2023/01/12 05:10:30;;;;;;;0.45;0.45;;;;;;;8.42;87.50;100281.97;5140733;28;20042;-81
2023/01/12 05:13:01;;;;;;;2.20;0.68;;;;;;;8.38;87.82;100293.41;5137285;28;20038;-81
2023/01/12 05:15:31;;;;;;;0.20;0.20;;;;;;;8.31;88.38;100290.09;5142259;28;20444;-83
2023/01/12 05:18:02;;;;;;;4.40;0.70;;;;;;;8.40;87.61;100289.00;5158138;28;20035;-83
2023/01/12 05:20:32;;;;;;;1.58;1.38;;;;;;;8.41;87.73;100285.47;5155547;28;20043;-82
2023/01/12 05:23:03;;;;;;;0.65;0.60;;;;;;;8.36;87.89;100271.69;5124461;28;20023;-81
2023/01/12 05:25:33;;;;;;;0.20;0.20;;;;;;;8.26;88.36;100265.84;5118852;28;20054;-82
2023/01/12 05:28:04;;;;;;;0.30;0.30;;;;;;;8.32;88.26;100256.94;5156430;28;20673;-81
2023/01/12 05:30:34;;;;;;;0.85;0.77;;;;;;;8.31;87.87;100250.00;5156056;28;20039;-82
2023/01/12 05:33:05;;;;;;;30.15;1.60;;;;;;;8.29;87.72;100230.91;5128085;28;20038;-81
2023/01/12 05:35:36;;;;;;;0.30;0.30;;;;;;;8.32;88.11;100249.09;5152914;28;20114;-82
2023/01/12 05:38:07;;;;;;;0.30;0.30;;;;;;;8.25;87.96;100226.63;5134721;28;20145;-80
2023/01/12 05:40:37;;;;;;;0.20;0.20;;;;;;;8.26;88.14;100236.19;5139373;28;20046;-81
2023/01/12 05:46:03;;;;;;;5.57;1.20;;;;;;;8.25;87.38;100211.84;5138596;28;20167;-81
2023/01/12 05:48:33;;;;;;;0.30;0.30;;;;;;;8.16;87.86;100204.22;5155346;28;20267;-81
2023/01/12 05:51:06;;;;;;;0.20;0.20;;;;;;;8.13;88.07;100201.69;5134271;28;20038;-81
2023/01/12 05:53:37;;;;;;;0.40;0.40;;;;;;;8.12;88.62;100199.97;5141326;28;20212;-82
2023/01/12 05:56:20;;;;;;;0.28;0.28;;;;;;;8.17;88.16;100198.09;5156082;28;20090;-82
2023/01/12 05:58:52;;;;;;;0.90;0.90;;;;;;;8.08;88.48;100207.03;5142285;28;20190;-82
2023/01/12 06:01:23;;;;;;;0.50;0.50;;;;;;;8.11;87.68;100196.50;5139539;28;20038;-81
2023/01/12 06:03:57;;;;;;;2.05;0.93;;;;;;;8.12;87.77;100199.97;5156668;28;20297;-82
2023/01/12 06:06:30;;;;;;;0.30;0.30;;;;;;;8.14;87.94;100190.34;5141931;28;20038;-82
2023/01/12 06:09:01;;;;;;;0.52;0.52;;;;;;;8.13;88.30;100186.88;5139655;28;20735;-81
2023/01/12 06:14:21;;;;;;;0.55;0.55;;;;;;;8.12;87.77;100186.91;5144316;28;20042;-81
2023/01/12 06:16:51;;;;;;;0.20;0.20;;;;;;;8.16;88.11;100184.16;5139599;28;20050;-81
2023/01/12 06:19:22;;;;;;;0.73;0.73;;;;;;;8.14;88.17;100183.34;5144343;28;20042;-81
2023/01/12 06:21:54;;;;;;;0.30;0.30;;;;;;;8.16;88.39;100178.94;5161188;28;20043;-80
2023/01/12 06:24:27;;;;;;;3.10;0.77;;;;;;;8.15;88.79;100190.28;5164774;28;20123;-80
2023/01/12 06:26:57;;;;;;;0.47;0.47;;;;;;;8.18;88.47;100184.16;5155215;28;20554;-80
2023/01/12 06:29:28;;;;;;;0.20;0.20;;;;;;;8.18;88.93;100182.38;5120002;28;20194;-81
2023/01/12 06:31:58;;;;;;;6.22;1.17;;;;;;;8.16;89.33;100185.94;5122643;28;20030;-80
2023/01/12 06:34:33;;;;;;;0.30;0.30;;;;;;;8.24;88.79;100183.97;5135913;28;20078;-81
2023/01/12 06:37:06;;;;;;;1.20;1.13;;;;;;;8.21;89.12;100167.53;5124427;28;20096;-81
2023/01/12 06:39:36;;;;;;;0.30;0.30;;;;;;;8.19;89.63;100171.03;5147883;28;20022;-81
2023/01/12 06:45:04;;;;;;;0.30;0.30;;;;;;;8.24;89.68;100157.84;5148128;28;20031;-81
2023/01/12 06:47:43;;;;;;;0.52;0.52;;;;;;;8.25;89.75;100161.31;5150904;28;20046;-81
2023/01/12 06:50:14;;;;;;;4.40;1.77;;;;;;;8.23;89.73;100145.66;5153813;28;20041;-81
2023/01/12 06:52:44;;;;;;;0.85;0.85;;;;;;;8.28;90.15;100145.56;5134191;28;20031;-81
2023/01/12 06:55:15;;;;;;;0.40;0.40;;;;;;;8.22;90.44;100154.41;5150798;28;20027;-82
2023/01/12 06:57:45;;;;;;;1.55;1.45;;;;;;;8.25;90.13;100153.47;5143720;28;20030;-81
2023/01/12 07:00:16;;;;;;;0.30;0.30;;;;;;;8.24;90.81;100156.97;5142252;28;20023;-81
2023/01/12 07:02:50;;;;;;;0.60;0.60;;;;;;;8.25;90.95;100156.94;5133711;28;20050;-81
2023/01/12 07:05:21;;;;;;;0.50;0.47;;;;;;;8.26;90.86;100173.47;5124515;28;20039;-81
2023/01/12 07:07:57;;;;;;;0.50;0.50;;;;;;;8.28;91.00;100146.41;5139360;28;20146;-81
2023/01/12 07:10:27;;;;;;;0.30;0.30;;;;;;;8.29;91.00;100142.03;5132570;28;20143;-81
2023/01/12 07:13:01;;;;;;;0.30;0.30;;;;;;;8.30;91.05;100164.66;5129397;28;20047;-81
2023/01/12 07:15:31;;;;;;;;;;;;;;;8.32;90.93;100149.78;5129274;28;20066;-81
2023/01/12 07:18:02;;;;;;;0.30;0.30;;;;;;;8.37;90.39;100147.03;5139273;28;19926;-80
2023/01/12 07:20:32;;;;;;;0.22;0.22;;;;;;;8.38;90.57;100151.38;5140882;28;20050;-80
2023/01/12 07:23:03;;;;;;;0.55;0.40;;;;;;;8.34;91.63;100159.31;5144847;28;20073;-80
2023/01/12 07:25:33;;;;;;;0.40;0.40;;;;;;;8.43;91.05;100154.75;5145849;28;20035;-81
2023/01/12 07:28:04;;;;;;;0.38;0.38;;;;;;;8.40;91.77;100150.44;5141862;28;20073;-80
2023/01/12 07:30:34;;;;;;;0.30;0.30;;;;;;;8.39;91.82;100145.25;5156529;28;20034;-80
2023/01/12 07:33:09;;;;;;;6.22;1.08;;;;;;;8.40;91.77;100153.03;5143426;28;20043;-80
2023/01/12 07:35:41;;;;;;;0.82;0.82;;;;;;;8.43;92.28;100160.81;5161161;28;20065;-80
2023/01/12 07:38:11;;;;;;;3.13;1.13;;;;;;;8.48;91.05;100145.88;5157896;28;20043;-81
2023/01/12 07:40:42;;;;;;;0.30;0.30;;;;;;;8.45;91.89;100152.91;5145407;28;20035;-81
2023/01/12 07:43:15;;;;;;;0.30;0.30;;;;;;;8.48;91.52;100151.09;5161841;28;20112;-81
2023/01/12 07:45:46;;;;;;;0.30;0.30;;;;;;;8.47;91.82;100152.00;5136024;28;20044;-81
2023/01/12 07:48:16;;;;;;;2.65;1.58;;;;;;;8.46;92.30;100152.91;5139560;28;20089;-81
2023/01/12 07:50:47;;;;;;;0.30;0.30;;;;;;;8.45;92.29;100148.56;5128141;28;20089;-81
2023/01/12 07:53:19;;;;;;;0.70;0.70;;;;;;;8.47;92.07;100146.78;5160361;28;20078;-81
2023/01/12 07:55:49;;;;;;;0.30;0.30;;;;;;;8.48;92.03;100151.09;5161925;28;20046;-81
2023/01/12 07:58:20;;;;;;;1.60;1.50;;;;;;;8.50;91.72;100148.47;5145571;28;20035;-81
2023/01/12 08:00:50;;;;;;;0.32;0.32;;;;;;;8.50;92.09;100149.31;5160844;28;20073;-81
2023/01/12 08:03:20;;;;;;;0.63;0.63;;;;;;;8.48;92.57;100145.03;5142090;28;20034;-81
2023/01/12 08:05:52;;;;;;;0.30;0.30;;;;;;;8.48;92.71;100145.88;5142852;28;20049;-81
2023/01/12 08:08:23;;;;;;;0.57;0.45;;;;;;;8.49;92.37;100149.38;5135543;28;20118;-81
2023/01/12 08:10:53;;;;;;;0.30;0.30;;;;;;;8.53;92.19;100147.53;5155857;28;20027;-81
2023/01/12 08:13:24;;;;;;;0.30;0.30;;;;;;;8.52;93.00;100151.03;5135233;28;20042;-81
2023/01/12 08:15:56;;;;;;;1.70;0.77;;;;;;;8.55;92.43;100153.59;5142087;28;20102;-81
2023/01/12 08:18:37;;;;;;;0.20;0.20;;;;;;;8.57;92.85;100172.69;5162590;28;20031;-81
2023/01/12 08:21:13;;;;;;;0.30;0.30;;;;;;;8.56;92.13;100155.25;5140431;28;20085;-81
2023/01/12 08:23:48;;;;;;;0.30;0.30;;;;;;;8.61;91.87;100148.16;5122606;28;20027;-81
2023/01/12 08:26:26;;;;;;;0.40;0.40;;;;;;;8.61;91.55;100150.78;5139286;28;20038;-81
2023/01/12 08:29:13;;;;;;;0.30;0.30;;;;;;;8.62;92.08;100163.81;5159453;28;20031;-82
2023/01/12 08:31:44;;;;;;;28.15;1.60;;;;;;;8.63;92.40;100146.38;5127993;28;20103;-81
2023/01/12 08:34:15;;;;;;;0.20;0.20;;;;;;;8.67;91.91;100158.44;5156015;28;20121;-81
2023/01/12 08:36:45;;;;;;;0.30;0.30;;;;;;;8.68;92.16;100161.94;5153072;28;20113;-81
2023/01/12 08:39:18;;;;;;;0.38;0.38;;;;;;;8.71;91.71;100161.84;5155740;28;20157;-81
2023/01/12 08:41:48;;;;;;;0.43;0.43;;;;;;;8.74;91.61;100173.06;5157582;28;20591;-82
2023/01/12 08:44:20;;;;;;;0.30;0.30;;;;;;;8.73;92.34;100165.28;5145419;28;20023;-83
2023/01/12 08:46:52;;;;;;;0.30;0.30;;;;;;;8.73;92.42;100173.97;5156122;28;20038;-82
2023/01/12 08:49:25;;;;;;;0.30;0.30;;;;;;;8.73;92.75;100166.13;5156134;28;20034;-82
2023/01/12 08:51:56;;;;;;;0.30;0.30;;;;;;;8.75;92.05;100161.69;5133545;28;20191;-82
2023/01/12 08:54:27;;;;;;;0.30;0.30;;;;;;;8.75;92.79;100179.16;5137806;28;20482;-82
2023/01/12 08:56:57;;;;;;;0.28;0.28;;;;;;;8.73;93.08;100179.19;5115107;28;20085;-82
2023/01/12 08:59:28;;;;;;;0.47;0.47;;;;;;;8.75;93.10;100185.25;5139993;28;20089;-82
2023/01/12 09:01:58;;;;;;;0.30;0.30;;;;;;;8.82;92.13;100197.25;5151561;28;20038;-82
2023/01/12 09:04:29;;;;;;;0.30;0.30;;;;;;;8.80;92.29;100170.28;5136504;28;20030;-82
2023/01/12 09:06:59;;;;;;;0.30;0.30;;;;;;;8.84;92.27;100170.19;5132730;28;20038;-82
2023/01/12 09:09:30;;;;;;;0.30;0.30;;;;;;;8.86;92.63;100182.31;5143797;28;20074;-82
2023/01/12 09:12:01;;;;;;;0.30;0.30;;;;;;;8.86;92.50;100181.47;5140193;28;20047;-82
2023/01/12 09:14:37;;;;;;;0.30;0.30;;;;;;;8.88;92.84;100179.69;5157686;28;20054;-82
2023/01/12 09:17:08;;;;;;;0.30;0.30;;;;;;;8.89;92.54;100181.38;5141091;28;20034;-82
2023/01/12 09:19:38;;;;;;;0.30;0.30;;;;;;;8.88;92.79;100198.00;5131028;28;20037;-82
2023/01/12 09:22:09;;;;;;;6.45;1.95;;;;;;;8.89;92.75;100197.06;5129890;28;20042;-82
2023/01/12 09:24:40;;;;;;;0.45;0.45;;;;;;;8.93;92.53;100190.84;5154586;28;20094;-82
2023/01/12 09:27:11;;;;;;;0.30;0.30;;;;;;;8.94;92.46;100190.81;5153724;28;20745;-82
2023/01/12 09:29:41;;;;;;;0.30;0.30;;;;;;;8.95;92.66;100192.53;5133423;28;20035;-82
2023/01/12 09:32:12;;;;;;;0.30;0.30;;;;;;;8.98;92.36;100194.19;5151522;28;20533;-82
2023/01/12 09:34:42;;;;;;;0.20;0.20;;;;;;;8.96;92.71;100198.63;5141361;28;20034;-82
2023/01/12 09:37:13;;;;;;;0.40;0.40;;;;;;;8.98;92.77;100208.16;5124953;28;20047;-82
2023/01/12 09:39:43;;;;;;;0.30;0.30;;;;;;;8.96;93.49;100204.72;5138458;28;20027;-82
2023/01/12 09:48:24;;;;;;;0.20;0.20;;;;;;;9.03;93.22;100194.06;5130801;28;20042;-82
2023/01/12 09:51:06;;;;;;;0.40;0.40;;;;;;;9.07;93.02;100219.25;5135003;28;20043;-82
2023/01/12 09:53:40;;;;;;;0.30;0.30;;;;;;;9.08;93.16;100218.34;5147587;28;20251;-82
2023/01/12 09:56:13;;;;;;;0.40;0.40;;;;;;;9.08;93.65;100232.28;5154001;28;20047;-81
2023/01/12 09:59:04;;;;;;;;;;;;;;;9.09;93.49;100220.06;5156240;28;20479;-82
2023/01/12 10:01:35;;;;;;;1.17;0.82;;;;;;;9.09;93.55;100234.00;5136313;28;20016;-82
2023/01/12 10:04:06;;;;;;;0.30;0.30;;;;;;;9.13;92.96;100225.16;5134343;28;20033;-83
2023/01/12 10:06:37;;;;;;;0.30;0.30;;;;;;;9.11;93.02;100236.56;5117495;28;20028;-83
2023/01/12 10:09:18;;;;;;;0.30;0.30;;;;;;;9.13;92.94;100264.41;5137630;28;20030;-82
2023/01/12 10:12:22;;;;;;;0.30;0.30;;;;;;;9.17;92.58;100243.38;5132591;28;20597;-82
2023/01/12 10:15:03;;;;;;;;;;;;;;;9.20;92.89;100238.06;5117933;28;20087;-82
2023/01/12 10:17:37;;;;;;;0.28;0.28;;;;;;;9.16;93.12;100241.66;5116464;28;20464;-82
2023/01/12 10:20:47;;;;;;;0.30;0.30;;;;;;;9.18;92.87;100245.09;5154894;28;20517;-83
2023/01/12 10:23:23;;;;;;;0.30;0.30;;;;;;;9.18;93.34;100245.94;5061065;29;20036;-82
2023/01/12 10:26:02;;;;;;;0.30;0.30;;;;;;;9.21;93.00;100229.31;5075227;29;20459;-82
2023/01/12 10:28:35;;;;;;;0.40;0.40;;;;;;;9.24;92.73;100239.69;5107856;28;20073;-83
2023/01/12 10:31:14;;;;;;;9.15;1.65;;;;;;;9.23;93.15;100245.81;5155141;28;20038;-82
2023/01/12 10:34:01;;;;;;;0.28;0.28;;;;;;;9.23;93.09;100232.72;5127240;28;20034;-82
2023/01/12 10:36:34;;;;;;;0.25;0.25;;;;;;;9.23;93.41;100244.09;5121230;28;20043;-83
2023/01/12 10:39:05;;;;;;;0.30;0.30;;;;;;;9.21;93.93;100232.78;5143498;28;20050;-83
2023/01/12 10:41:38;;;;;;;0.20;0.20;;;;;;;9.24;94.03;100250.16;5145718;28;20042;-82
2023/01/12 10:44:13;;;;;;;;;;;;;;;9.29;94.29;100243.06;5158113;28;20530;-83
2023/01/12 10:47:08;;;;;;;0.20;0.20;;;;;;;9.28;93.73;100225.63;5133299;28;20409;-83
2023/01/12 10:49:38;;;;;;;0.30;0.30;;;;;;;9.31;93.84;100240.38;5137840;28;20045;-83
2023/01/12 10:52:30;;;;;;;0.30;0.30;;;;;;;9.29;93.83;100230.81;5121416;28;20042;-83
2023/01/12 10:55:01;;;;;;;0.20;0.20;;;;;;;9.34;93.61;100238.53;5134076;28;20534;-82
2023/01/12 10:57:32;;;;;;;0.30;0.30;;;;;;;9.34;92.98;100225.44;5131228;28;20050;-82
2023/01/12 11:00:04;;;;;;;0.30;0.30;;;;;;;9.36;93.03;100234.09;5118521;28;20402;-81
2023/01/12 11:02:42;;;;;;;0.30;0.30;;;;;;;9.38;92.96;100234.06;5146955;28;20315;-81
2023/01/12 11:05:30;;;;;;;0.30;0.30;;;;;;;9.39;93.18;100223.53;5135070;28;20528;-81
2023/01/12 11:08:01;;;;;;;2.40;0.85;;;;;;;9.41;92.96;100242.66;5133817;28;20385;-82
2023/01/12 11:10:37;;;;;;;0.98;0.98;;;;;;;9.47;93.07;100230.28;5127973;28;21032;-81
2023/01/12 11:13:23;;;;;;;0.20;0.20;;;;;;;9.47;92.47;100236.41;5137597;28;20022;-81
2023/01/12 11:16:14;;;;;;;0.30;0.30;;;;;;;9.45;93.55;100230.34;5155432;28;20045;-80
2023/01/12 11:18:55;;;;;;;0.30;0.30;;;;;;;9.47;93.26;100235.53;5140202;28;20127;-81
2023/01/12 11:21:32;;;;;;;0.30;0.30;;;;;;;9.45;93.12;100225.09;5149865;28;20409;-82
2023/01/12 11:24:18;;;;;;;0.70;0.70;;;;;;;9.47;93.62;100232.91;5121297;28;20061;-82
2023/01/12 11:27:06;;;;;;;2.30;1.15;;;;;;;9.45;93.05;100244.31;5135589;28;20034;-80
2023/01/12 11:29:50;;;;;;;0.28;0.28;;;;;;;9.51;92.48;100231.91;5135494;28;20030;-81
2023/01/12 11:32:41;;;;;;;0.25;0.25;;;;;;;9.53;92.10;100237.97;5133929;28;20066;-81
2023/01/12 11:35:24;;;;;;;0.30;0.30;;;;;;;9.56;91.38;100243.09;5148952;28;20027;-82
2023/01/12 11:38:00;;;;;;;0.30;0.30;;;;;;;9.59;90.76;100222.06;5153590;28;20023;-81
2023/01/12 11:40:41;;;;;;;0.90;0.90;;;;;;;9.59;91.23;100220.28;5152001;28;20076;-82
2023/01/12 11:43:51;;;;;;;0.20;0.20;;;;;;;9.61;91.50;100231.59;5138360;28;20023;-81
2023/01/12 11:46:22;;;;;;;0.28;0.28;;;;;;;9.63;91.15;100226.28;5132901;28;20135;-81
2023/01/12 11:49:31;;;;;;;2.28;1.20;;;;;;;9.65;90.49;100224.50;5143384;28;20077;-82
2023/01/12 11:52:01;;;;;;;0.90;0.90;;;;;;;9.68;90.06;100228.75;5125208;28;20049;-81
2023/01/12 11:54:32;;;;;;;0.30;0.30;;;;;;;9.69;89.89;100233.97;5160166;28;20027;-81
2023/01/12 11:57:08;;;;;;;0.30;0.30;;;;;;;9.67;90.73;100243.63;5142439;28;20035;-81
2023/01/12 12:00:01;;;;;;;0.30;0.30;;;;;;;9.68;90.39;100224.41;5157432;28;20035;-82
2023/01/12 12:02:36;;;;;;;0.30;0.30;;;;;;;9.71;90.40;100219.03;5140299;28;20563;-82
2023/01/12 12:05:37;;;;;;;0.95;0.60;;;;;;;9.68;91.41;100224.41;5140807;28;20022;-82
2023/01/12 12:08:12;;;;;;;5.07;1.30;;;;;;;9.66;91.56;100223.59;5140016;28;20592;-82
2023/01/12 12:10:59;;;;;;;0.20;0.20;;;;;;;9.66;91.63;100236.69;5154546;28;20085;-81
2023/01/12 12:13:44;;;;;;;0.20;0.20;;;;;;;9.63;91.50;100215.81;5137961;28;20146;-81
2023/01/12 12:16:43;;;;;;;0.30;0.30;;;;;;;9.66;91.56;100210.50;5153145;28;20043;-82
2023/01/12 12:19:28;;;;;;;0.30;0.30;;;;;;;9.69;91.41;100223.50;5139234;28;20035;-82
2023/01/12 12:22:08;;;;;;;0.40;0.40;;;;;;;9.70;91.37;100206.88;5144873;28;20030;-81
2023/01/12 12:25:14;;;;;;;0.30;0.30;;;;;;;9.67;91.82;100195.66;5162954;28;20039;-81
2023/01/12 12:28:04;;;;;;;0.30;0.30;;;;;;;9.67;91.76;100206.97;5156718;28;20549;-82
2023/01/12 12:30:52;;;;;;;0.30;0.30;;;;;;;9.65;91.71;100203.53;5148121;28;20401;-83
2023/01/12 12:33:27;;;;;;;0.30;0.30;;;;;;;9.66;91.83;100205.25;5139507;28;20046;-82
2023/01/12 12:36:10;;;;;;;0.60;0.60;;;;;;;9.68;91.21;100195.59;5141420;28;20049;-85
2023/01/12 12:38:47;;;;;;;0.98;0.60;;;;;;;9.71;90.85;100195.47;5124370;28;20416;-84
2023/01/12 12:45:15;;;;;;;0.30;0.30;;;;;;;9.67;91.83;100188.63;5138096;28;20031;-83
2023/01/12 12:48:09;;;;;;;0.20;0.20;;;;;;;9.68;91.68;100192.97;5112515;28;20042;-82
2023/01/12 12:50:45;;;;;;;0.30;0.30;;;;;;;9.67;91.50;100196.50;5138757;28;20779;-82